sensor_id;sensor_type;location;lat;lon;timestamp;P1;durP1;ratioP1;P2;durP2;ratioP2
9424;SDS011;17139;52.140;11.636;2022-07-31T00:02:05;4.70;;;4.28;;
9424;SDS011;17139;52.140;11.636;2022-07-31T00:04:32;4.25;;;4.05;;
9424;SDS011;17139;52.140;11.636;2022-07-31T00:07:00;3.92;;;3.83;;
9424;SDS011;17139;52.140;11.636;2022-07-31T00:09:28;4.03;;;3.85;;
9424;SDS011;17139;52.140;11.636;2022-07-31T00:11:55;4.65;;;4.35;;
9424;SDS011;17139;52.140;11.636;2022-07-31T00:14:22;4.13;;;3.92;;
9424;SDS011;17139;52.140;11.636;2022-07-31T00:16:50;4.57;;;4.30;;
9424;SDS011;17139;52.140;11.636;2022-07-31T00:19:17;5.07;;;4.80;;
9424;SDS011;17139;52.140;11.636;2022-07-31T00:21:44;4.82;;;4.63;;
9424;SDS011;17139;52.140;11.636;2022-07-31T00:24:11;4.20;;;3.90;;
9424;SDS011;17139;52.140;11.636;2022-07-31T00:26:40;4.28;;;4.18;;
9424;SDS011;17139;52.140;11.636;2022-07-31T00:29:08;10.13;;;4.88;;
9424;SDS011;17139;52.140;11.636;2022-07-31T00:31:35;4.75;;;4.50;;
9424;SDS011;17139;52.140;11.636;2022-07-31T00:34:02;5.18;;;4.82;;
9424;SDS011;17139;52.140;11.636;2022-07-31T00:36:30;6.10;;;5.57;;
9424;SDS011;17139;52.140;11.636;2022-07-31T00:38:57;5.25;;;5.05;;
9424;SDS011;17139;52.140;11.636;2022-07-31T00:41:24;6.05;;;5.57;;
9424;SDS011;17139;52.140;11.636;2022-07-31T00:44:03;4.85;;;4.65;;
9424;SDS011;17139;52.140;11.636;2022-07-31T00:46:31;5.30;;;4.97;;
9424;SDS011;17139;52.140;11.636;2022-07-31T00:48:58;4.75;;;4.45;;
9424;SDS011;17139;52.140;11.636;2022-07-31T00:51:25;5.03;;;4.82;;
9424;SDS011;17139;52.140;11.636;2022-07-31T00:53:52;4.93;;;4.72;;
9424;SDS011;17139;52.140;11.636;2022-07-31T00:56:20;5.50;;;5.20;;
9424;SDS011;17139;52.140;11.636;2022-07-31T00:58:47;5.80;;;5.40;;
9424;SDS011;17139;52.140;11.636;2022-07-31T01:01:15;5.45;;;5.03;;
9424;SDS011;17139;52.140;11.636;2022-07-31T01:03:43;5.18;;;4.82;;
9424;SDS011;17139;52.140;11.636;2022-07-31T01:06:10;5.22;;;5.03;;
9424;SDS011;17139;52.140;11.636;2022-07-31T01:08:37;5.63;;;5.32;;
9424;SDS011;17139;52.140;11.636;2022-07-31T01:11:05;5.28;;;4.97;;
9424;SDS011;17139;52.140;11.636;2022-07-31T01:13:38;6.25;;;5.85;;
9424;SDS011;17139;52.140;11.636;2022-07-31T01:16:13;6.35;;;6.05;;
9424;SDS011;17139;52.140;11.636;2022-07-31T01:18:43;9.13;;;6.35;;
9424;SDS011;17139;52.140;11.636;2022-07-31T01:21:23;7.47;;;7.03;;
9424;SDS011;17139;52.140;11.636;2022-07-31T01:24:23;6.72;;;6.28;;
9424;SDS011;17139;52.140;11.636;2022-07-31T01:27:06;5.40;;;5.00;;
9424;SDS011;17139;52.140;11.636;2022-07-31T01:29:45;5.60;;;5.30;;
9424;SDS011;17139;52.140;11.636;2022-07-31T01:32:19;5.55;;;5.30;;
9424;SDS011;17139;52.140;11.636;2022-07-31T01:34:53;6.47;;;5.43;;
9424;SDS011;17139;52.140;11.636;2022-07-31T01:37:28;6.90;;;6.40;;
9424;SDS011;17139;52.140;11.636;2022-07-31T01:39:58;6.28;;;5.97;;
9424;SDS011;17139;52.140;11.636;2022-07-31T01:42:28;6.35;;;5.93;;
9424;SDS011;17139;52.140;11.636;2022-07-31T01:44:59;7.40;;;7.00;;
9424;SDS011;17139;52.140;11.636;2022-07-31T01:47:28;6.68;;;6.28;;
9424;SDS011;17139;52.140;11.636;2022-07-31T01:49:58;5.95;;;5.65;;
9424;SDS011;17139;52.140;11.636;2022-07-31T01:52:28;8.35;;;7.95;;
9424;SDS011;17139;52.140;11.636;2022-07-31T01:54:58;7.00;;;6.70;;
9424;SDS011;17139;52.140;11.636;2022-07-31T01:57:26;7.63;;;6.93;;
9424;SDS011;17139;52.140;11.636;2022-07-31T01:59:59;7.10;;;6.80;;
9424;SDS011;17139;52.140;11.636;2022-07-31T02:02:29;7.40;;;6.72;;
9424;SDS011;17139;52.140;11.636;2022-07-31T02:04:57;7.00;;;6.63;;
9424;SDS011;17139;52.140;11.636;2022-07-31T02:07:24;7.22;;;6.72;;
9424;SDS011;17139;52.140;11.636;2022-07-31T02:09:53;7.15;;;6.57;;
9424;SDS011;17139;52.140;11.636;2022-07-31T02:12:21;7.30;;;7.00;;
9424;SDS011;17139;52.140;11.636;2022-07-31T02:14:49;6.88;;;6.47;;
9424;SDS011;17139;52.140;11.636;2022-07-31T02:17:19;7.20;;;6.78;;
9424;SDS011;17139;52.140;11.636;2022-07-31T02:19:46;8.30;;;6.80;;
9424;SDS011;17139;52.140;11.636;2022-07-31T02:22:16;9.60;;;8.73;;
9424;SDS011;17139;52.140;11.636;2022-07-31T02:24:44;7.57;;;6.93;;
9424;SDS011;17139;52.140;11.636;2022-07-31T02:27:11;7.68;;;7.28;;
9424;SDS011;17139;52.140;11.636;2022-07-31T02:29:39;7.97;;;7.43;;
9424;SDS011;17139;52.140;11.636;2022-07-31T02:32:08;7.90;;;7.20;;
9424;SDS011;17139;52.140;11.636;2022-07-31T02:34:39;7.05;;;6.75;;
9424;SDS011;17139;52.140;11.636;2022-07-31T02:37:09;8.25;;;6.93;;
9424;SDS011;17139;52.140;11.636;2022-07-31T02:39:39;7.88;;;7.43;;
9424;SDS011;17139;52.140;11.636;2022-07-31T02:42:06;7.57;;;7.05;;
9424;SDS011;17139;52.140;11.636;2022-07-31T02:44:34;7.43;;;7.13;;
9424;SDS011;17139;52.140;11.636;2022-07-31T02:47:04;10.60;;;7.68;;
9424;SDS011;17139;52.140;11.636;2022-07-31T02:49:32;7.47;;;6.82;;
9424;SDS011;17139;52.140;11.636;2022-07-31T02:52:01;7.78;;;7.10;;
9424;SDS011;17139;52.140;11.636;2022-07-31T02:54:29;10.57;;;9.88;;
9424;SDS011;17139;52.140;11.636;2022-07-31T02:56:57;8.55;;;8.20;;
9424;SDS011;17139;52.140;11.636;2022-07-31T02:59:25;7.63;;;7.13;;
9424;SDS011;17139;52.140;11.636;2022-07-31T03:01:52;7.75;;;7.25;;
9424;SDS011;17139;52.140;11.636;2022-07-31T03:04:19;8.48;;;7.78;;
9424;SDS011;17139;52.140;11.636;2022-07-31T03:06:47;7.85;;;7.20;;
9424;SDS011;17139;52.140;11.636;2022-07-31T03:09:15;8.13;;;7.38;;
9424;SDS011;17139;52.140;11.636;2022-07-31T03:11:43;7.32;;;6.72;;
9424;SDS011;17139;52.140;11.636;2022-07-31T03:14:10;8.60;;;7.15;;
9424;SDS011;17139;52.140;11.636;2022-07-31T03:16:38;8.65;;;8.05;;
9424;SDS011;17139;52.140;11.636;2022-07-31T03:19:07;8.35;;;7.65;;
9424;SDS011;17139;52.140;11.636;2022-07-31T03:21:34;8.07;;;7.57;;
9424;SDS011;17139;52.140;11.636;2022-07-31T03:24:02;8.95;;;8.40;;
9424;SDS011;17139;52.140;11.636;2022-07-31T03:26:32;7.15;;;6.75;;
9424;SDS011;17139;52.140;11.636;2022-07-31T03:29:00;7.35;;;6.97;;
9424;SDS011;17139;52.140;11.636;2022-07-31T03:31:28;9.77;;;7.47;;
9424;SDS011;17139;52.140;11.636;2022-07-31T03:33:55;7.38;;;6.88;;
9424;SDS011;17139;52.140;11.636;2022-07-31T03:36:22;6.88;;;6.57;;
9424;SDS011;17139;52.140;11.636;2022-07-31T03:38:50;7.32;;;6.95;;
9424;SDS011;17139;52.140;11.636;2022-07-31T03:41:17;7.78;;;7.38;;
9424;SDS011;17139;52.140;11.636;2022-07-31T03:43:46;7.00;;;6.70;;
9424;SDS011;17139;52.140;11.636;2022-07-31T03:46:15;7.10;;;6.57;;
9424;SDS011;17139;52.140;11.636;2022-07-31T03:48:44;9.83;;;9.07;;
9424;SDS011;17139;52.140;11.636;2022-07-31T03:51:12;8.45;;;7.85;;
9424;SDS011;17139;52.140;11.636;2022-07-31T03:53:40;7.32;;;6.95;;
9424;SDS011;17139;52.140;11.636;2022-07-31T03:56:08;9.07;;;8.57;;
9424;SDS011;17139;52.140;11.636;2022-07-31T03:58:36;7.75;;;7.25;;
9424;SDS011;17139;52.140;11.636;2022-07-31T04:01:05;7.78;;;7.28;;
9424;SDS011;17139;52.140;11.636;2022-07-31T04:03:34;7.32;;;7.00;;
9424;SDS011;17139;52.140;11.636;2022-07-31T04:06:02;8.13;;;7.50;;
9424;SDS011;17139;52.140;11.636;2022-07-31T04:08:29;7.65;;;7.15;;
9424;SDS011;17139;52.140;11.636;2022-07-31T04:10:56;7.65;;;7.15;;
9424;SDS011;17139;52.140;11.636;2022-07-31T04:13:24;7.93;;;7.53;;
9424;SDS011;17139;52.140;11.636;2022-07-31T04:15:51;8.82;;;8.25;;
9424;SDS011;17139;52.140;11.636;2022-07-31T04:18:20;7.63;;;7.13;;
9424;SDS011;17139;52.140;11.636;2022-07-31T04:20:47;9.70;;;8.93;;
9424;SDS011;17139;52.140;11.636;2022-07-31T04:23:14;7.47;;;7.10;;
9424;SDS011;17139;52.140;11.636;2022-07-31T04:25:42;8.02;;;7.40;;
9424;SDS011;17139;52.140;11.636;2022-07-31T04:28:09;8.95;;;8.45;;
9424;SDS011;17139;52.140;11.636;2022-07-31T04:30:36;7.65;;;7.25;;
9424;SDS011;17139;52.140;11.636;2022-07-31T04:33:03;7.80;;;7.15;;
9424;SDS011;17139;52.140;11.636;2022-07-31T04:35:32;7.68;;;7.13;;
9424;SDS011;17139;52.140;11.636;2022-07-31T04:38:00;8.48;;;7.47;;
9424;SDS011;17139;52.140;11.636;2022-07-31T04:40:27;7.35;;;6.97;;
9424;SDS011;17139;52.140;11.636;2022-07-31T04:42:54;7.25;;;6.65;;
9424;SDS011;17139;52.140;11.636;2022-07-31T04:45:22;6.97;;;6.68;;
9424;SDS011;17139;52.140;11.636;2022-07-31T04:47:49;6.70;;;6.32;;
9424;SDS011;17139;52.140;11.636;2022-07-31T04:50:16;7.10;;;6.78;;
9424;SDS011;17139;52.140;11.636;2022-07-31T04:52:45;8.32;;;7.88;;
9424;SDS011;17139;52.140;11.636;2022-07-31T04:55:12;8.02;;;7.43;;
9424;SDS011;17139;52.140;11.636;2022-07-31T04:57:39;7.32;;;6.45;;
9424;SDS011;17139;52.140;11.636;2022-07-31T05:00:07;8.15;;;7.65;;
9424;SDS011;17139;52.140;11.636;2022-07-31T05:02:35;7.07;;;6.68;;
9424;SDS011;17139;52.140;11.636;2022-07-31T05:05:03;6.88;;;6.47;;
9424;SDS011;17139;52.140;11.636;2022-07-31T05:07:30;7.18;;;6.78;;
9424;SDS011;17139;52.140;11.636;2022-07-31T05:10:00;7.15;;;6.65;;
9424;SDS011;17139;52.140;11.636;2022-07-31T05:12:27;6.72;;;6.43;;
9424;SDS011;17139;52.140;11.636;2022-07-31T05:14:54;6.45;;;6.03;;
9424;SDS011;17139;52.140;11.636;2022-07-31T05:17:21;6.22;;;5.82;;
9424;SDS011;17139;52.140;11.636;2022-07-31T05:19:48;6.93;;;6.15;;
9424;SDS011;17139;52.140;11.636;2022-07-31T05:22:16;5.78;;;5.38;;
9424;SDS011;17139;52.140;11.636;2022-07-31T05:24:43;6.68;;;6.18;;
9424;SDS011;17139;52.140;11.636;2022-07-31T05:27:13;5.85;;;5.55;;
9424;SDS011;17139;52.140;11.636;2022-07-31T05:29:40;5.18;;;4.93;;
9424;SDS011;17139;52.140;11.636;2022-07-31T05:32:07;5.90;;;5.40;;
9424;SDS011;17139;52.140;11.636;2022-07-31T05:34:34;5.28;;;4.93;;
9424;SDS011;17139;52.140;11.636;2022-07-31T05:37:01;4.80;;;4.57;;
9424;SDS011;17139;52.140;11.636;2022-07-31T05:39:29;5.30;;;4.90;;
9424;SDS011;17139;52.140;11.636;2022-07-31T05:41:56;4.65;;;4.45;;
9424;SDS011;17139;52.140;11.636;2022-07-31T05:44:25;5.68;;;4.63;;
9424;SDS011;17139;52.140;11.636;2022-07-31T05:46:52;4.32;;;4.05;;
9424;SDS011;17139;52.140;11.636;2022-07-31T05:49:19;4.70;;;4.18;;
9424;SDS011;17139;52.140;11.636;2022-07-31T05:51:50;4.75;;;4.45;;
9424;SDS011;17139;52.140;11.636;2022-07-31T05:54:19;4.55;;;4.35;;
9424;SDS011;17139;52.140;11.636;2022-07-31T05:56:47;4.80;;;4.30;;
9424;SDS011;17139;52.140;11.636;2022-07-31T05:59:14;5.72;;;4.32;;
9424;SDS011;17139;52.140;11.636;2022-07-31T06:01:42;4.13;;;3.97;;
9424;SDS011;17139;52.140;11.636;2022-07-31T06:04:10;3.80;;;3.50;;
9424;SDS011;17139;52.140;11.636;2022-07-31T06:06:37;3.47;;;3.28;;
9424;SDS011;17139;52.140;11.636;2022-07-31T06:09:04;3.50;;;3.30;;
9424;SDS011;17139;52.140;11.636;2022-07-31T06:11:31;2.85;;;2.75;;
9424;SDS011;17139;52.140;11.636;2022-07-31T06:13:59;3.20;;;3.00;;
9424;SDS011;17139;52.140;11.636;2022-07-31T06:16:26;3.15;;;2.88;;
9424;SDS011;17139;52.140;11.636;2022-07-31T06:18:55;3.30;;;3.10;;
9424;SDS011;17139;52.140;11.636;2022-07-31T06:21:22;2.95;;;2.75;;
9424;SDS011;17139;52.140;11.636;2022-07-31T06:23:49;2.72;;;2.63;;
9424;SDS011;17139;52.140;11.636;2022-07-31T06:26:16;2.95;;;2.75;;
9424;SDS011;17139;52.140;11.636;2022-07-31T06:28:43;3.42;;;3.20;;
9424;SDS011;17139;52.140;11.636;2022-07-31T06:31:14;6.35;;;3.00;;
9424;SDS011;17139;52.140;11.636;2022-07-31T06:33:43;4.10;;;2.80;;
9424;SDS011;17139;52.140;11.636;2022-07-31T06:36:11;3.13;;;2.92;;
9424;SDS011;17139;52.140;11.636;2022-07-31T06:38:39;4.07;;;2.92;;
9424;SDS011;17139;52.140;11.636;2022-07-31T06:41:06;3.47;;;3.17;;
9424;SDS011;17139;52.140;11.636;2022-07-31T06:43:33;3.78;;;3.58;;
9424;SDS011;17139;52.140;11.636;2022-07-31T06:46:00;3.05;;;2.80;;
9424;SDS011;17139;52.140;11.636;2022-07-31T06:48:27;3.30;;;3.10;;
9424;SDS011;17139;52.140;11.636;2022-07-31T06:50:54;3.92;;;3.47;;
9424;SDS011;17139;52.140;11.636;2022-07-31T06:53:23;3.40;;;3.13;;
9424;SDS011;17139;52.140;11.636;2022-07-31T06:55:51;2.90;;;2.63;;
9424;SDS011;17139;52.140;11.636;2022-07-31T06:58:18;3.10;;;2.90;;
9424;SDS011;17139;52.140;11.636;2022-07-31T07:00:45;3.40;;;3.08;;
9424;SDS011;17139;52.140;11.636;2022-07-31T07:03:13;2.58;;;2.47;;
9424;SDS011;17139;52.140;11.636;2022-07-31T07:05:40;3.72;;;2.53;;
9424;SDS011;17139;52.140;11.636;2022-07-31T07:08:08;3.53;;;3.20;;
9424;SDS011;17139;52.140;11.636;2022-07-31T07:10:37;3.17;;;2.97;;
9424;SDS011;17139;52.140;11.636;2022-07-31T07:13:04;3.92;;;3.15;;
9424;SDS011;17139;52.140;11.636;2022-07-31T07:15:31;3.17;;;2.63;;
9424;SDS011;17139;52.140;11.636;2022-07-31T07:17:59;3.45;;;3.15;;
9424;SDS011;17139;52.140;11.636;2022-07-31T07:20:26;3.65;;;3.40;;
9424;SDS011;17139;52.140;11.636;2022-07-31T07:22:53;3.28;;;3.08;;
9424;SDS011;17139;52.140;11.636;2022-07-31T07:25:20;3.60;;;3.40;;
9424;SDS011;17139;52.140;11.636;2022-07-31T07:27:49;3.75;;;3.45;;
9424;SDS011;17139;52.140;11.636;2022-07-31T07:30:16;3.03;;;2.80;;
9424;SDS011;17139;52.140;11.636;2022-07-31T07:32:43;3.53;;;3.05;;
9424;SDS011;17139;52.140;11.636;2022-07-31T07:35:11;3.47;;;3.28;;
9424;SDS011;17139;52.140;11.636;2022-07-31T07:37:38;3.22;;;3.03;;
9424;SDS011;17139;52.140;11.636;2022-07-31T07:40:06;3.85;;;3.25;;
9424;SDS011;17139;52.140;11.636;2022-07-31T07:42:34;3.95;;;2.83;;
9424;SDS011;17139;52.140;11.636;2022-07-31T07:45:03;5.28;;;2.72;;
9424;SDS011;17139;52.140;11.636;2022-07-31T07:47:31;2.92;;;2.67;;
9424;SDS011;17139;52.140;11.636;2022-07-31T07:49:59;2.78;;;2.58;;
9424;SDS011;17139;52.140;11.636;2022-07-31T07:52:26;4.40;;;2.90;;
9424;SDS011;17139;52.140;11.636;2022-07-31T07:54:53;3.15;;;2.90;;
9424;SDS011;17139;52.140;11.636;2022-07-31T07:57:21;2.35;;;2.25;;
9424;SDS011;17139;52.140;11.636;2022-07-31T07:59:49;4.15;;;3.80;;
9424;SDS011;17139;52.140;11.636;2022-07-31T08:02:18;4.97;;;3.22;;
9424;SDS011;17139;52.140;11.636;2022-07-31T08:04:45;2.38;;;2.25;;
9424;SDS011;17139;52.140;11.636;2022-07-31T08:07:12;2.90;;;2.42;;
9424;SDS011;17139;52.140;11.636;2022-07-31T08:09:39;2.58;;;2.38;;
9424;SDS011;17139;52.140;11.636;2022-07-31T08:12:07;2.15;;;2.03;;
9424;SDS011;17139;52.140;11.636;2022-07-31T08:14:34;2.15;;;2.05;;
9424;SDS011;17139;52.140;11.636;2022-07-31T08:17:02;2.30;;;2.17;;
9424;SDS011;17139;52.140;11.636;2022-07-31T08:19:30;2.10;;;2.00;;
9424;SDS011;17139;52.140;11.636;2022-07-31T08:21:57;2.38;;;2.20;;
9424;SDS011;17139;52.140;11.636;2022-07-31T08:24:24;1.83;;;1.80;;
9424;SDS011;17139;52.140;11.636;2022-07-31T08:26:52;2.38;;;2.20;;
9424;SDS011;17139;52.140;11.636;2022-07-31T08:29:36;2.50;;;2.40;;
9424;SDS011;17139;52.140;11.636;2022-07-31T08:32:04;2.25;;;1.92;;
9424;SDS011;17139;52.140;11.636;2022-07-31T08:34:33;2.20;;;2.10;;
9424;SDS011;17139;52.140;11.636;2022-07-31T08:37:01;3.05;;;2.13;;
9424;SDS011;17139;52.140;11.636;2022-07-31T08:39:30;2.65;;;2.10;;
9424;SDS011;17139;52.140;11.636;2022-07-31T08:41:58;2.10;;;2.00;;
9424;SDS011;17139;52.140;11.636;2022-07-31T08:44:25;2.00;;;1.80;;
9424;SDS011;17139;52.140;11.636;2022-07-31T08:46:52;3.05;;;2.08;;
9424;SDS011;17139;52.140;11.636;2022-07-31T08:49:24;3.47;;;2.35;;
9424;SDS011;17139;52.140;11.636;2022-07-31T08:51:53;3.15;;;1.90;;
9424;SDS011;17139;52.140;11.636;2022-07-31T08:54:23;2.28;;;2.00;;
9424;SDS011;17139;52.140;11.636;2022-07-31T08:56:52;2.45;;;1.80;;
9424;SDS011;17139;52.140;11.636;2022-07-31T08:59:19;2.17;;;1.70;;
9424;SDS011;17139;52.140;11.636;2022-07-31T09:01:47;1.60;;;1.50;;
9424;SDS011;17139;52.140;11.636;2022-07-31T09:04:15;2.03;;;1.55;;
9424;SDS011;17139;52.140;11.636;2022-07-31T09:06:42;1.50;;;1.45;;
9424;SDS011;17139;52.140;11.636;2022-07-31T09:09:11;1.75;;;1.65;;
9424;SDS011;17139;52.140;11.636;2022-07-31T09:11:44;1.50;;;1.50;;
9424;SDS011;17139;52.140;11.636;2022-07-31T09:14:12;2.25;;;1.95;;
9424;SDS011;17139;52.140;11.636;2022-07-31T09:16:44;2.13;;;1.98;;
9424;SDS011;17139;52.140;11.636;2022-07-31T09:19:14;3.97;;;1.83;;
9424;SDS011;17139;52.140;11.636;2022-07-31T09:21:42;2.10;;;2.00;;
9424;SDS011;17139;52.140;11.636;2022-07-31T09:24:12;1.98;;;1.88;;
9424;SDS011;17139;52.140;11.636;2022-07-31T09:26:52;3.53;;;1.70;;
9424;SDS011;17139;52.140;11.636;2022-07-31T09:29:32;1.52;;;1.42;;
9424;SDS011;17139;52.140;11.636;2022-07-31T09:32:06;1.88;;;1.50;;
9424;SDS011;17139;52.140;11.636;2022-07-31T09:34:34;1.23;;;1.23;;
9424;SDS011;17139;52.140;11.636;2022-07-31T09:37:08;1.90;;;1.50;;
9424;SDS011;17139;52.140;11.636;2022-07-31T09:39:37;1.10;;;1.10;;
9424;SDS011;17139;52.140;11.636;2022-07-31T09:42:06;1.40;;;1.40;;
9424;SDS011;17139;52.140;11.636;2022-07-31T09:44:34;1.33;;;1.33;;
9424;SDS011;17139;52.140;11.636;2022-07-31T09:47:05;1.50;;;1.40;;
9424;SDS011;17139;52.140;11.636;2022-07-31T09:49:50;1.60;;;1.27;;
9424;SDS011;17139;52.140;11.636;2022-07-31T09:52:19;2.03;;;1.50;;
9424;SDS011;17139;52.140;11.636;2022-07-31T09:54:58;1.50;;;1.40;;
9424;SDS011;17139;52.140;11.636;2022-07-31T09:57:27;3.17;;;1.48;;
9424;SDS011;17139;52.140;11.636;2022-07-31T09:59:54;1.35;;;1.25;;
9424;SDS011;17139;52.140;11.636;2022-07-31T10:02:22;1.25;;;1.25;;
9424;SDS011;17139;52.140;11.636;2022-07-31T10:04:51;1.20;;;1.20;;
9424;SDS011;17139;52.140;11.636;2022-07-31T10:07:20;1.23;;;1.23;;
9424;SDS011;17139;52.140;11.636;2022-07-31T10:09:53;1.30;;;1.20;;
9424;SDS011;17139;52.140;11.636;2022-07-31T10:12:22;1.48;;;1.38;;
9424;SDS011;17139;52.140;11.636;2022-07-31T10:14:55;1.30;;;1.30;;
9424;SDS011;17139;52.140;11.636;2022-07-31T10:17:26;1.45;;;1.00;;
9424;SDS011;17139;52.140;11.636;2022-07-31T10:19:57;1.23;;;1.23;;
9424;SDS011;17139;52.140;11.636;2022-07-31T10:22:28;3.73;;;1.40;;
9424;SDS011;17139;52.140;11.636;2022-07-31T10:25:02;1.10;;;1.10;;
9424;SDS011;17139;52.140;11.636;2022-07-31T10:27:31;1.58;;;1.48;;
9424;SDS011;17139;52.140;11.636;2022-07-31T10:29:58;1.30;;;1.20;;
9424;SDS011;17139;52.140;11.636;2022-07-31T10:32:27;1.05;;;1.05;;
9424;SDS011;17139;52.140;11.636;2022-07-31T10:34:55;1.20;;;1.20;;
9424;SDS011;17139;52.140;11.636;2022-07-31T10:37:34;1.70;;;1.23;;
9424;SDS011;17139;52.140;11.636;2022-07-31T10:40:09;1.60;;;1.50;;
9424;SDS011;17139;52.140;11.636;2022-07-31T10:42:45;1.23;;;1.23;;
9424;SDS011;17139;52.140;11.636;2022-07-31T10:45:16;1.30;;;1.30;;
9424;SDS011;17139;52.140;11.636;2022-07-31T10:47:53;1.02;;;1.02;;
9424;SDS011;17139;52.140;11.636;2022-07-31T10:50:22;1.05;;;1.05;;
9424;SDS011;17139;52.140;11.636;2022-07-31T10:52:51;0.80;;;0.80;;
9424;SDS011;17139;52.140;11.636;2022-07-31T10:55:21;0.73;;;0.73;;
9424;SDS011;17139;52.140;11.636;2022-07-31T10:57:51;0.80;;;0.80;;
9424;SDS011;17139;52.140;11.636;2022-07-31T11:00:19;0.65;;;0.65;;
9424;SDS011;17139;52.140;11.636;2022-07-31T11:02:48;0.85;;;0.85;;
9424;SDS011;17139;52.140;11.636;2022-07-31T11:05:16;2.30;;;0.90;;
9424;SDS011;17139;52.140;11.636;2022-07-31T11:07:47;0.80;;;0.80;;
9424;SDS011;17139;52.140;11.636;2022-07-31T11:10:28;0.80;;;0.80;;
9424;SDS011;17139;52.140;11.636;2022-07-31T11:12:58;0.80;;;0.80;;
9424;SDS011;17139;52.140;11.636;2022-07-31T11:15:28;1.52;;;0.80;;
9424;SDS011;17139;52.140;11.636;2022-07-31T11:17:56;0.80;;;0.80;;
9424;SDS011;17139;52.140;11.636;2022-07-31T11:20:24;1.08;;;1.08;;
9424;SDS011;17139;52.140;11.636;2022-07-31T11:22:54;0.90;;;0.90;;
9424;SDS011;17139;52.140;11.636;2022-07-31T11:25:24;0.57;;;0.57;;
9424;SDS011;17139;52.140;11.636;2022-07-31T11:27:55;0.60;;;0.60;;
9424;SDS011;17139;52.140;11.636;2022-07-31T11:30:23;0.88;;;0.88;;
9424;SDS011;17139;52.140;11.636;2022-07-31T11:32:51;0.50;;;0.50;;
9424;SDS011;17139;52.140;11.636;2022-07-31T11:35:25;0.70;;;0.70;;
9424;SDS011;17139;52.140;11.636;2022-07-31T11:37:54;0.73;;;0.73;;
9424;SDS011;17139;52.140;11.636;2022-07-31T11:40:21;1.10;;;1.00;;
9424;SDS011;17139;52.140;11.636;2022-07-31T11:42:49;0.80;;;0.80;;
9424;SDS011;17139;52.140;11.636;2022-07-31T11:45:19;0.77;;;0.77;;
9424;SDS011;17139;52.140;11.636;2022-07-31T11:47:47;0.80;;;0.80;;
9424;SDS011;17139;52.140;11.636;2022-07-31T11:50:16;1.00;;;1.00;;
9424;SDS011;17139;52.140;11.636;2022-07-31T11:52:43;0.90;;;0.90;;
9424;SDS011;17139;52.140;11.636;2022-07-31T11:55:12;0.65;;;0.65;;
9424;SDS011;17139;52.140;11.636;2022-07-31T11:57:41;0.80;;;0.80;;
9424;SDS011;17139;52.140;11.636;2022-07-31T12:00:10;0.80;;;0.80;;
9424;SDS011;17139;52.140;11.636;2022-07-31T12:02:48;1.83;;;1.10;;
9424;SDS011;17139;52.140;11.636;2022-07-31T12:05:15;1.23;;;1.23;;
9424;SDS011;17139;52.140;11.636;2022-07-31T12:07:43;0.80;;;0.80;;
9424;SDS011;17139;52.140;11.636;2022-07-31T12:10:11;0.85;;;0.85;;
9424;SDS011;17139;52.140;11.636;2022-07-31T12:12:40;0.90;;;0.90;;
9424;SDS011;17139;52.140;11.636;2022-07-31T12:15:15;1.10;;;1.10;;
9424;SDS011;17139;52.140;11.636;2022-07-31T12:17:58;1.50;;;1.40;;
9424;SDS011;17139;52.140;11.636;2022-07-31T12:20:29;1.10;;;1.10;;
9424;SDS011;17139;52.140;11.636;2022-07-31T12:22:58;1.30;;;1.30;;
9424;SDS011;17139;52.140;11.636;2022-07-31T12:25:25;1.27;;;1.00;;
9424;SDS011;17139;52.140;11.636;2022-07-31T12:27:53;0.90;;;0.90;;
9424;SDS011;17139;52.140;11.636;2022-07-31T12:30:21;1.48;;;1.00;;
9424;SDS011;17139;52.140;11.636;2022-07-31T12:32:51;1.08;;;1.08;;
9424;SDS011;17139;52.140;11.636;2022-07-31T12:35:33;3.15;;;1.23;;
9424;SDS011;17139;52.140;11.636;2022-07-31T12:38:01;1.25;;;1.20;;
9424;SDS011;17139;52.140;11.636;2022-07-31T12:40:29;1.50;;;1.50;;
9424;SDS011;17139;52.140;11.636;2022-07-31T12:42:57;1.20;;;1.20;;
9424;SDS011;17139;52.140;11.636;2022-07-31T12:45:29;1.33;;;1.20;;
9424;SDS011;17139;52.140;11.636;2022-07-31T12:47:59;1.05;;;1.05;;
9424;SDS011;17139;52.140;11.636;2022-07-31T12:50:29;3.40;;;1.20;;
9424;SDS011;17139;52.140;11.636;2022-07-31T12:52:58;1.65;;;1.55;;
9424;SDS011;17139;52.140;11.636;2022-07-31T12:55:27;1.30;;;1.30;;
9424;SDS011;17139;52.140;11.636;2022-07-31T12:57:57;1.58;;;1.42;;
9424;SDS011;17139;52.140;11.636;2022-07-31T13:00:25;1.58;;;1.58;;
9424;SDS011;17139;52.140;11.636;2022-07-31T13:02:54;1.63;;;1.52;;
9424;SDS011;17139;52.140;11.636;2022-07-31T13:05:24;1.30;;;1.30;;
9424;SDS011;17139;52.140;11.636;2022-07-31T13:07:51;1.50;;;1.40;;
9424;SDS011;17139;52.140;11.636;2022-07-31T13:10:20;1.73;;;1.63;;
9424;SDS011;17139;52.140;11.636;2022-07-31T13:12:49;1.25;;;1.25;;
9424;SDS011;17139;52.140;11.636;2022-07-31T13:15:17;2.78;;;1.30;;
9424;SDS011;17139;52.140;11.636;2022-07-31T13:17:47;1.10;;;1.10;;
9424;SDS011;17139;52.140;11.636;2022-07-31T13:20:14;1.85;;;1.75;;
9424;SDS011;17139;52.140;11.636;2022-07-31T13:22:46;1.65;;;1.40;;
9424;SDS011;17139;52.140;11.636;2022-07-31T13:25:14;1.33;;;1.23;;
9424;SDS011;17139;52.140;11.636;2022-07-31T13:27:42;1.70;;;1.60;;
9424;SDS011;17139;52.140;11.636;2022-07-31T13:30:10;1.58;;;1.58;;
9424;SDS011;17139;52.140;11.636;2022-07-31T13:32:38;1.50;;;1.50;;
9424;SDS011;17139;52.140;11.636;2022-07-31T13:35:06;1.90;;;1.23;;
9424;SDS011;17139;52.140;11.636;2022-07-31T13:37:34;1.52;;;1.45;;
9424;SDS011;17139;52.140;11.636;2022-07-31T13:40:03;1.98;;;1.15;;
9424;SDS011;17139;52.140;11.636;2022-07-31T13:42:31;1.40;;;1.30;;
9424;SDS011;17139;52.140;11.636;2022-07-31T13:44:59;1.70;;;1.60;;
9424;SDS011;17139;52.140;11.636;2022-07-31T13:47:27;1.20;;;1.10;;
9424;SDS011;17139;52.140;11.636;2022-07-31T13:49:55;1.50;;;1.45;;
9424;SDS011;17139;52.140;11.636;2022-07-31T13:52:22;1.38;;;1.30;;
9424;SDS011;17139;52.140;11.636;2022-07-31T13:54:51;1.50;;;1.40;;
9424;SDS011;17139;52.140;11.636;2022-07-31T13:57:20;1.58;;;1.40;;
9424;SDS011;17139;52.140;11.636;2022-07-31T13:59:48;1.27;;;1.27;;
9424;SDS011;17139;52.140;11.636;2022-07-31T14:02:15;1.47;;;1.47;;
9424;SDS011;17139;52.140;11.636;2022-07-31T14:04:43;1.27;;;1.20;;
9424;SDS011;17139;52.140;11.636;2022-07-31T14:07:10;1.52;;;1.50;;
9424;SDS011;17139;52.140;11.636;2022-07-31T14:09:38;1.08;;;1.08;;
9424;SDS011;17139;52.140;11.636;2022-07-31T14:12:05;0.98;;;0.98;;
9424;SDS011;17139;52.140;11.636;2022-07-31T14:14:35;1.05;;;0.95;;
9424;SDS011;17139;52.140;11.636;2022-07-31T14:17:03;1.13;;;1.13;;
9424;SDS011;17139;52.140;11.636;2022-07-31T14:19:30;2.30;;;1.83;;
9424;SDS011;17139;52.140;11.636;2022-07-31T14:21:58;1.50;;;1.40;;
9424;SDS011;17139;52.140;11.636;2022-07-31T14:24:25;1.85;;;1.75;;
9424;SDS011;17139;52.140;11.636;2022-07-31T14:26:54;1.70;;;1.60;;
9424;SDS011;17139;52.140;11.636;2022-07-31T14:29:22;1.27;;;1.20;;
9424;SDS011;17139;52.140;11.636;2022-07-31T14:31:51;4.93;;;1.30;;
9424;SDS011;17139;52.140;11.636;2022-07-31T14:34:18;3.42;;;1.30;;
9424;SDS011;17139;52.140;11.636;2022-07-31T14:36:46;0.90;;;0.90;;
9424;SDS011;17139;52.140;11.636;2022-07-31T14:39:14;1.00;;;1.00;;
9424;SDS011;17139;52.140;11.636;2022-07-31T14:41:41;0.95;;;0.95;;
9424;SDS011;17139;52.140;11.636;2022-07-31T14:44:09;2.40;;;1.00;;
9424;SDS011;17139;52.140;11.636;2022-07-31T14:46:38;1.38;;;1.20;;
9424;SDS011;17139;52.140;11.636;2022-07-31T14:49:08;1.33;;;1.30;;
9424;SDS011;17139;52.140;11.636;2022-07-31T14:51:36;0.90;;;0.90;;
9424;SDS011;17139;52.140;11.636;2022-07-31T14:54:04;2.50;;;1.10;;
9424;SDS011;17139;52.140;11.636;2022-07-31T14:56:32;1.13;;;1.13;;
9424;SDS011;17139;52.140;11.636;2022-07-31T14:58:59;1.10;;;1.10;;